Time;durP1;ratioP1;P1;durP2;ratioP2;P2;SDS_P1;SDS_P2;PMS_P1;PMS_P2;Temp;Humidity;BMP_temperature;BMP_pressure;BME280_temperature;BME280_humidity;BME280_pressure;Samples;Min_cycle;Max_cycle;Signal;HPM_P1;HPM_P2
2021/01/24 00:00:14;;;;;;;0.10;0.10;;;4.70;99.90;;;;;;5068044;28;20020;-89
2021/01/24 00:02:40;;;;;;;0.03;0.03;;;4.70;99.90;;;;;;5054327;28;20044;-89
2021/01/24 00:05:06;;;;;;;0.30;0.30;;;4.80;99.90;;;;;;5068170;28;20032;-89
2021/01/24 00:07:32;;;;;;;0.25;0.25;;;4.80;99.90;;;;;;5067999;28;20028;-87
2021/01/24 00:09:58;;;;;;;0.10;0.10;;;4.80;99.90;;;;;;5053658;28;20054;-88
2021/01/24 00:12:24;;;;;;;0.05;0.05;;;4.80;99.90;;;;;;5071875;28;20028;-88
2021/01/24 00:14:49;;;;;;;4.95;2.47;;;4.80;99.90;;;;;;5071818;28;20751;-88
2021/01/24 00:17:15;;;;;;;4.88;1.10;;;4.80;99.90;;;;;;5053883;28;20087;-88
2021/01/24 00:19:41;;;;;;;0.50;0.47;;;4.80;99.90;;;;;;5051428;28;20076;-88
2021/01/24 00:22:07;;;;;;;0.10;0.10;;;4.70;99.90;;;;;;5049698;28;20021;-88
2021/01/24 00:24:32;;;;;;;0.35;0.35;;;4.60;99.90;;;;;;5051960;28;20033;-87
2021/01/24 00:26:58;;;;;;;0.20;0.20;;;4.50;99.90;;;;;;5049704;28;20032;-87
2021/01/24 00:29:24;;;;;;;0.20;0.20;;;4.50;99.90;;;;;;5050300;28;20443;-87
2021/01/24 00:31:50;;;;;;;0.00;0.00;;;4.60;99.90;;;;;;5050297;28;20028;-87
2021/01/24 00:34:16;;;;;;;0.15;0.15;;;4.70;99.90;;;;;;5050182;28;20029;-88
2021/01/24 00:36:41;;;;;;;1.33;1.23;;;4.80;99.90;;;;;;5050322;28;20036;-87
2021/01/24 00:39:07;;;;;;;0.55;0.55;;;4.90;99.90;;;;;;5049431;28;20021;-88
2021/01/24 00:41:33;;;;;;;0.17;0.17;;;4.90;99.90;;;;;;5050103;28;20017;-88
2021/01/24 00:43:59;;;;;;;0.10;0.10;;;4.90;99.90;;;;;;5036262;28;20064;-88
2021/01/24 00:46:25;;;;;;;0.30;0.30;;;4.90;99.90;;;;;;5051439;28;20045;-88
2021/01/24 00:48:51;;;;;;;0.10;0.10;;;4.90;99.90;;;;;;5050632;28;20067;-88
2021/01/24 00:51:17;;;;;;;0.17;0.17;;;5.00;99.90;;;;;;5050196;28;20021;-88
2021/01/24 00:53:43;;;;;;;0.43;0.43;;;4.80;99.90;;;;;;5052463;28;20098;-88
2021/01/24 00:56:09;;;;;;;0.10;0.10;;;4.70;99.90;;;;;;5035998;28;20096;-89
2021/01/24 00:58:34;;;;;;;0.13;0.13;;;4.70;99.90;;;;;;5049201;28;20021;-89
2021/01/24 01:01:00;;;;;;;0.10;0.10;;;4.70;99.90;;;;;;5052242;28;20033;-89
2021/01/24 01:03:26;;;;;;;0.10;0.10;;;4.60;99.90;;;;;;5044367;28;20033;-89
2021/01/24 01:05:52;;;;;;;0.10;0.10;;;4.60;99.90;;;;;;5050177;28;20029;-89
2021/01/24 01:08:18;;;;;;;0.05;0.05;;;4.60;99.90;;;;;;5050270;28;20436;-89
2021/01/24 01:10:43;;;;;;;0.10;0.10;;;4.60;99.90;;;;;;5050222;28;20025;-89
2021/01/24 01:13:09;;;;;;;0.10;0.10;;;4.60;99.90;;;;;;5049751;28;20032;-89
2021/01/24 01:15:35;;;;;;;15.35;0.80;;;4.60;99.90;;;;;;5051454;28;20024;-88
2021/01/24 01:18:01;;;;;;;0.10;0.10;;;4.60;99.90;;;;;;5038873;28;20108;-89
2021/01/24 01:20:27;;;;;;;0.20;0.20;;;4.50;99.90;;;;;;5054517;28;20037;-89
2021/01/24 01:22:53;;;;;;;0.10;0.10;;;4.60;99.90;;;;;;5051129;28;20033;-89
2021/01/24 01:25:19;;;;;;;0.10;0.10;;;4.60;99.90;;;;;;5050068;28;20610;-89
2021/01/24 01:27:45;;;;;;;0.17;0.17;;;4.60;99.90;;;;;;5045389;28;20029;-88
2021/01/24 01:30:11;;;;;;;0.08;0.08;;;4.50;99.90;;;;;;5049631;28;20074;-89
2021/01/24 01:32:37;;;;;;;0.10;0.10;;;4.50;99.90;;;;;;5051367;28;20067;-88
2021/01/24 01:35:04;;;;;;;0.10;0.10;;;4.50;99.90;;;;;;5051428;28;20028;-88
2021/01/24 01:37:30;;;;;;;0.30;0.30;;;4.50;99.90;;;;;;5049718;28;20021;-89
2021/01/24 01:39:56;;;;;;;0.10;0.10;;;4.40;99.90;;;;;;5048358;28;20036;-89
2021/01/24 01:42:22;;;;;;;0.10;0.10;;;4.50;99.90;;;;;;5048730;28;20120;-89
2021/01/24 01:44:48;;;;;;;0.13;0.13;;;4.50;99.90;;;;;;5053062;28;20025;-89
2021/01/24 01:47:32;;;;;;;0.10;0.10;;;4.40;99.90;;;;;;5035630;28;20372;-88
2021/01/24 01:49:58;;;;;;;1.23;1.13;;;4.40;99.90;;;;;;5048978;28;20504;-88
2021/01/24 01:52:28;;;;;;;0.57;0.57;;;4.40;99.90;;;;;;5047262;28;20111;-89
2021/01/24 01:54:55;;;;;;;0.10;0.10;;;4.40;99.90;;;;;;5048045;28;20074;-89
2021/01/24 01:57:22;;;;;;;0.32;0.32;;;4.40;99.90;;;;;;5048065;28;20521;-89
2021/01/24 01:59:49;;;;;;;0.10;0.10;;;4.30;99.90;;;;;;5047141;28;20032;-88
2021/01/24 02:02:23;;;;;;;0.10;0.10;;;4.40;99.90;;;;;;5048203;28;20497;-88
2021/01/24 02:05:09;;;;;;;0.75;0.75;;;4.40;99.90;;;;;;5047559;28;20025;-88
2021/01/24 02:07:54;;;;;;;0.30;0.30;;;4.40;99.90;;;;;;5048888;28;20117;-88
2021/01/24 02:10:35;;;;;;;0.15;0.15;;;4.40;99.90;;;;;;5048101;28;20348;-87
2021/01/24 02:13:13;;;;;;;0.13;0.13;;;4.40;99.90;;;;;;5047812;28;20035;-88
2021/01/24 02:15:42;;;;;;;0.20;0.20;;;4.50;99.90;;;;;;5049498;28;20017;-88
2021/01/24 02:18:10;;;;;;;0.10;0.10;;;4.50;99.90;;;;;;5046915;28;20570;-88
2021/01/24 02:21:11;;;;;;;0.20;0.20;;;4.40;99.90;;;;;;5069503;28;20064;-88
2021/01/24 02:23:40;;;;;;;0.05;0.05;;;4.40;99.90;;;;;;5047906;28;20105;-89
2021/01/24 02:26:32;;;;;;;0.10;0.10;;;4.30;99.90;;;;;;5037887;28;20512;-88
2021/01/24 02:29:21;;;;;;;2.30;0.65;;;4.30;99.90;;;;;;4990009;28;20034;-88
2021/01/24 02:31:49;;;;;;;0.75;0.75;;;4.30;99.90;;;;;;4987479;28;20443;-87
2021/01/24 02:34:18;;;;;;;0.28;0.28;;;4.30;99.90;;;;;;4990079;28;20454;-88
2021/01/24 02:36:46;;;;;;;0.25;0.25;;;4.30;99.90;;;;;;4989959;28;20619;-87
2021/01/24 02:39:13;;;;;;;0.95;0.95;;;4.20;99.90;;;;;;5006118;28;20030;-88
2021/01/24 02:41:39;;;;;;;0.28;0.28;;;4.20;99.90;;;;;;4990477;28;20153;-88
2021/01/24 02:44:08;;;;;;;0.00;0.00;;;4.20;99.90;;;;;;5006109;28;20111;-88
2021/01/24 02:46:34;;;;;;;0.43;0.43;;;4.20;99.90;;;;;;4989921;28;20033;-88
2021/01/24 02:49:01;;;;;;;0.65;0.65;;;4.20;99.90;;;;;;4989998;28;20038;-88
2021/01/24 02:51:28;;;;;;;0.20;0.20;;;4.20;99.90;;;;;;5006378;28;20096;-88
2021/01/24 02:53:55;;;;;;;3.30;1.98;;;4.20;99.90;;;;;;4989325;28;20499;-88
2021/01/24 02:56:22;;;;;;;0.60;0.60;;;4.20;99.90;;;;;;4989895;28;20021;-88
2021/01/24 02:58:52;;;;;;;0.22;0.22;;;4.10;99.90;;;;;;4989901;28;20581;-88
2021/01/24 03:01:17;;;;;;;0.88;0.68;;;4.20;99.90;;;;;;4989799;28;20049;-88
2021/01/24 03:03:43;;;;;;;3.75;1.27;;;4.20;99.90;;;;;;5006363;28;20460;-88
2021/01/24 03:06:11;;;;;;;0.10;0.10;;;4.20;99.90;;;;;;5022850;28;20070;-87
2021/01/24 03:08:39;;;;;;;0.10;0.10;;;4.10;99.90;;;;;;5050379;28;20028;-88
2021/01/24 03:11:07;;;;;;;0.65;0.65;;;4.10;99.90;;;;;;5067856;28;20039;-88
2021/01/24 03:13:42;;;;;;;2.15;1.52;;;4.10;99.90;;;;;;5049721;28;20765;-87
2021/01/24 03:16:11;;;;;;;0.20;0.20;;;4.10;99.90;;;;;;5067711;28;20016;-87
2021/01/24 03:18:40;;;;;;;0.30;0.30;;;4.10;99.90;;;;;;5068237;28;20112;-88
2021/01/24 03:21:09;;;;;;;0.30;0.30;;;4.10;99.90;;;;;;5069645;28;20035;-88
2021/01/24 03:23:37;;;;;;;1.13;0.95;;;4.10;99.90;;;;;;5050359;28;20044;-88
2021/01/24 03:26:05;;;;;;;0.15;0.15;;;4.10;99.90;;;;;;5068260;28;20021;-88
2021/01/24 03:28:31;;;;;;;0.30;0.30;;;4.10;99.90;;;;;;5050110;28;20109;-88
2021/01/24 03:30:57;;;;;;;0.70;0.70;;;4.10;99.90;;;;;;5066700;28;20020;-88
2021/01/24 03:33:23;;;;;;;0.93;0.90;;;4.10;99.90;;;;;;5049908;28;20021;-89
2021/01/24 03:35:49;;;;;;;0.38;0.38;;;4.10;99.90;;;;;;5049904;28;20025;-88
2021/01/24 03:38:14;;;;;;;0.20;0.20;;;4.00;99.90;;;;;;5067521;28;20054;-88
2021/01/24 03:40:40;;;;;;;0.82;0.82;;;4.00;99.90;;;;;;5067670;28;20796;-88
2021/01/24 03:43:06;;;;;;;0.10;0.10;;;4.00;99.90;;;;;;5051749;28;20032;-87
2021/01/24 03:45:32;;;;;;;0.52;0.50;;;4.00;99.90;;;;;;5052875;28;20016;-87
2021/01/24 03:47:57;;;;;;;0.75;0.75;;;4.00;99.90;;;;;;5072282;28;20067;-87
2021/01/24 03:50:23;;;;;;;0.25;0.25;;;4.00;99.90;;;;;;5066053;28;20117;-87
2021/01/24 03:52:49;;;;;;;0.17;0.17;;;3.90;99.90;;;;;;5040970;28;20025;-87
2021/01/24 03:55:15;;;;;;;0.38;0.38;;;3.90;99.90;;;;;;5070030;28;20054;-87
2021/01/24 03:57:40;;;;;;;0.20;0.20;;;4.00;99.90;;;;;;5052187;28;20056;-88
2021/01/24 04:00:07;;;;;;;0.10;0.10;;;4.10;99.90;;;;;;5067220;28;20107;-87
2021/01/24 04:02:33;;;;;;;11.00;2.50;;;4.00;99.90;;;;;;5066509;28;20025;-87
2021/01/24 04:04:59;;;;;;;0.40;0.40;;;4.00;99.90;;;;;;5051431;28;20058;-87
2021/01/24 04:07:25;;;;;;;0.40;0.40;;;4.00;99.90;;;;;;5071465;28;20055;-88
2021/01/24 04:09:50;;;;;;;1.27;1.17;;;3.90;99.90;;;;;;5071275;28;20529;-87
2021/01/24 04:12:16;;;;;;;0.82;0.82;;;3.90;99.90;;;;;;5071291;28;20497;-87
2021/01/24 04:14:42;;;;;;;9.32;1.65;;;3.90;99.90;;;;;;5053684;28;20423;-87
2021/01/24 04:17:08;;;;;;;1.08;1.05;;;3.80;99.90;;;;;;5053447;28;20493;-86
2021/01/24 04:19:33;;;;;;;0.22;0.22;;;3.80;99.90;;;;;;5070027;28;20047;-87
2021/01/24 04:21:59;;;;;;;0.90;0.85;;;3.60;99.90;;;;;;5070267;28;20039;-86
2021/01/24 04:24:25;;;;;;;0.63;0.63;;;3.50;99.90;;;;;;5052292;28;20020;-86
2021/01/24 04:26:54;;;;;;;0.10;0.10;;;3.30;99.90;;;;;;5052565;28;20098;-86
2021/01/24 04:29:20;;;;;;;0.75;0.40;;;3.20;99.90;;;;;;5052660;28;20032;-88
2021/01/24 04:31:46;;;;;;;0.00;0.00;;;3.20;99.90;;;;;;5038657;28;20103;-87
2021/01/24 04:34:13;;;;;;;0.82;0.82;;;3.10;99.90;;;;;;5052747;28;20115;-87
2021/01/24 04:36:39;;;;;;;0.28;0.28;;;2.90;99.90;;;;;;5070905;28;20082;-87
2021/01/24 04:39:05;;;;;;;0.17;0.17;;;2.90;99.90;;;;;;5053079;28;20393;-87
2021/01/24 04:41:36;;;;;;;0.10;0.10;;;2.90;99.90;;;;;;5056665;28;20260;-87
2021/01/24 04:44:03;;;;;;;0.10;0.10;;;2.90;99.90;;;;;;5052007;28;20036;-87
2021/01/24 04:46:31;;;;;;;0.88;0.88;;;2.90;99.90;;;;;;5052386;28;20025;-87
2021/01/24 04:48:58;;;;;;;1.35;1.00;;;3.00;99.90;;;;;;5070155;28;20025;-87
2021/01/24 04:51:24;;;;;;;0.28;0.28;;;3.00;99.90;;;;;;5052279;28;20025;-87
2021/01/24 04:53:50;;;;;;;1.65;1.00;;;3.00;99.90;;;;;;5068634;28;20102;-87
2021/01/24 04:56:16;;;;;;;5.97;2.25;;;3.00;99.90;;;;;;5052721;28;20039;-88
2021/01/24 04:58:43;;;;;;;0.30;0.30;;;3.00;99.90;;;;;;5051669;28;20024;-87
2021/01/24 05:01:09;;;;;;;;;;;3.10;99.90;;;;;;5070444;28;20024;-88
2021/01/24 05:03:35;;;;;;;0.40;0.40;;;3.10;99.90;;;;;;5070720;28;19908;-87
2021/01/24 05:06:01;;;;;;;0.22;0.22;;;3.20;99.90;;;;;;5052424;28;20036;-88
2021/01/24 05:08:31;;;;;;;0.20;0.20;;;3.20;99.90;;;;;;5051198;28;20047;-87
2021/01/24 05:11:04;;;;;;;1.02;0.93;;;3.20;99.90;;;;;;5045296;28;20044;-87
2021/01/24 05:13:30;;;;;;;0.10;0.10;;;3.30;99.90;;;;;;5051907;28;20021;-87
2021/01/24 05:15:59;;;;;;;2.05;1.95;;;3.30;99.90;;;;;;5070085;28;20127;-87
2021/01/24 05:18:26;;;;;;;0.57;0.57;;;3.30;99.90;;;;;;5070281;28;20059;-87
2021/01/24 05:20:52;;;;;;;0.20;0.20;;;3.40;99.90;;;;;;5045127;28;20044;-87
2021/01/24 05:23:22;;;;;;;1.38;1.27;;;3.40;99.90;;;;;;5050910;28;20563;-86
2021/01/24 05:25:49;;;;;;;0.30;0.30;;;3.30;99.90;;;;;;5051311;28;20063;-86
2021/01/24 05:28:22;;;;;;;0.50;0.50;;;3.30;99.90;;;;;;5051064;28;20062;-86
2021/01/24 05:30:48;;;;;;;0.52;0.52;;;3.30;99.90;;;;;;5069665;28;20397;-86
2021/01/24 05:33:18;;;;;;;0.10;0.10;;;3.30;99.90;;;;;;5069854;28;20012;-86
2021/01/24 05:35:52;;;;;;;0.85;0.85;;;3.30;99.90;;;;;;5069796;28;20098;-87
2021/01/24 05:38:27;;;;;;;0.20;0.20;;;3.30;99.90;;;;;;5069232;28;20017;-86
2021/01/24 05:40:53;;;;;;;0.20;0.20;;;3.30;99.90;;;;;;5052079;28;20119;-86
2021/01/24 05:43:23;;;;;;;0.10;0.10;;;3.30;99.90;;;;;;5051592;28;20028;-87
2021/01/24 05:45:50;;;;;;;0.20;0.20;;;3.30;99.90;;;;;;5053710;28;20029;-87
2021/01/24 05:48:16;;;;;;;0.32;0.32;;;3.30;99.90;;;;;;5073623;28;20485;-86
2021/01/24 05:50:45;;;;;;;0.52;0.52;;;3.30;99.90;;;;;;5069846;28;20078;-86
2021/01/24 05:53:13;;;;;;;1.77;1.35;;;3.20;99.90;;;;;;5041246;28;20401;-86
2021/01/24 05:55:40;;;;;;;0.10;0.10;;;3.10;99.90;;;;;;5051841;28;20021;-86
2021/01/24 05:58:23;;;;;;;0.10;0.10;;;3.00;99.90;;;;;;5051328;28;20561;-86
2021/01/24 06:00:53;;;;;;;1.02;0.93;;;2.80;99.90;;;;;;5040076;28;20033;-87
2021/01/24 06:03:20;;;;;;;0.10;0.10;;;2.80;99.90;;;;;;5051833;28;20024;-86
2021/01/24 06:05:47;;;;;;;0.90;0.82;;;2.70;99.90;;;;;;5069685;28;20034;-87
2021/01/24 06:08:15;;;;;;;0.38;0.38;;;2.60;99.90;;;;;;5050747;28;20031;-88
2021/01/24 06:10:41;;;;;;;0.85;0.85;;;2.60;99.90;;;;;;5068734;28;20077;-87
2021/01/24 06:13:27;;;;;;;1.35;1.25;;;2.50;99.90;;;;;;5068726;28;20432;-87
2021/01/24 06:15:54;;;;;;;;;;;2.30;99.90;;;;;;5069633;28;20028;-87
2021/01/24 06:18:35;;;;;;;3.03;0.88;;;2.20;99.90;;;;;;5084033;28;19911;-86
2021/01/24 06:21:05;;;;;;;0.35;0.35;;;2.20;99.90;;;;;;5051902;28;20036;-88
2021/01/24 06:23:39;;;;;;;0.75;0.75;;;2.20;99.90;;;;;;5050195;28;20037;-87
2021/01/24 06:26:10;;;;;;;3.53;0.90;;;2.10;99.90;;;;;;5050285;28;20461;-87
2021/01/24 06:28:41;;;;;;;1.02;0.95;;;2.20;99.90;;;;;;5050857;28;20029;-87
2021/01/24 06:31:15;;;;;;;0.25;0.25;;;2.20;99.90;;;;;;5068919;28;20021;-86
2021/01/24 06:33:50;;;;;;;0.40;0.40;;;2.20;99.90;;;;;;5050147;28;20038;-86
2021/01/24 06:36:16;;;;;;;2.15;2.00;;;2.10;99.90;;;;;;5050450;28;20028;-86
2021/01/24 06:38:44;;;;;;;0.10;0.10;;;2.10;99.90;;;;;;5050651;28;20031;-86
2021/01/24 06:41:11;;;;;;;0.30;0.30;;;2.10;99.90;;;;;;5050494;28;20115;-85
2021/01/24 06:43:44;;;;;;;0.10;0.10;;;2.10;99.90;;;;;;5050433;28;20016;-86
2021/01/24 06:46:30;;;;;;;0.55;0.52;;;2.10;99.90;;;;;;5062135;28;20025;-86
2021/01/24 06:48:57;;;;;;;0.63;0.63;;;2.40;1.00;;;;;;5033041;28;20040;-87
2021/01/24 06:51:41;;;;;;;0.20;0.20;;;2.60;1.00;;;;;;5044073;28;20060;-86
2021/01/24 06:54:07;;;;;;;0.35;0.35;;;2.80;99.90;;;;;;5059124;28;20434;-86
2021/01/24 06:56:45;;;;;;;0.10;0.10;;;2.90;99.90;;;;;;5050732;28;20131;-87
2021/01/24 06:59:12;;;;;;;0.15;0.15;;;3.00;99.90;;;;;;5038269;28;20021;-87
2021/01/24 07:01:43;;;;;;;0.30;0.30;;;3.00;99.90;;;;;;5050375;28;20029;-86
2021/01/24 07:04:19;;;;;;;0.20;0.20;;;3.10;99.90;;;;;;5063153;28;20040;-86
2021/01/24 07:06:49;;;;;;;0.13;0.13;;;3.10;99.90;;;;;;5050868;28;20032;-86
2021/01/24 07:09:24;;;;;;;0.20;0.20;;;3.20;99.90;;;;;;5050660;28;20033;-88
2021/01/24 07:11:51;;;;;;;0.10;0.10;;;3.20;99.90;;;;;;5065165;28;20024;-87
2021/01/24 07:14:32;;;;;;;0.45;0.45;;;3.30;99.90;;;;;;5049657;28;20501;-88
2021/01/24 07:17:01;;;;;;;0.77;0.50;;;3.30;99.90;;;;;;5049621;28;20520;-89
2021/01/24 07:19:31;;;;;;;1.40;1.30;;;3.30;99.90;;;;;;5067578;28;20543;-88
2021/01/24 07:21:58;;;;;;;0.45;0.45;;;3.30;99.90;;;;;;5050150;28;20052;-88
2021/01/24 07:24:25;;;;;;;;;;;3.40;99.90;;;;;;5073278;28;20012;-88
2021/01/24 07:26:54;;;;;;;0.40;0.40;;;3.40;99.90;;;;;;5049674;28;20395;-89
2021/01/24 07:29:21;;;;;;;15.63;1.83;;;3.40;99.90;;;;;;5050091;28;20032;-87
2021/01/24 07:31:48;;;;;;;0.82;0.82;;;3.40;99.90;;;;;;5050059;28;20749;-87
2021/01/24 07:34:14;;;;;;;0.22;0.22;;;3.50;99.90;;;;;;5068134;28;20021;-87
2021/01/24 07:36:43;;;;;;;0.10;0.10;;;3.50;99.90;;;;;;5067609;28;20479;-87
2021/01/24 07:39:09;;;;;;;0.98;0.75;;;3.50;99.90;;;;;;5049845;28;20036;-87
2021/01/24 07:41:34;;;;;;;0.87;0.87;;;3.50;99.90;;;;;;5067902;28;20578;-87
2021/01/24 07:44:00;;;;;;;0.85;0.85;;;3.50;99.90;;;;;;5049376;28;20286;-87
2021/01/24 07:46:26;;;;;;;0.20;0.20;;;3.60;99.90;;;;;;5056460;28;20024;-86
2021/01/24 07:48:53;;;;;;;0.95;0.95;;;3.60;99.90;;;;;;5067335;28;20078;-86
2021/01/24 07:51:22;;;;;;;2.85;2.65;;;3.60;99.90;;;;;;5044305;28;20029;-88
2021/01/24 07:53:51;;;;;;;7.35;5.07;;;3.60;99.90;;;;;;5044412;28;20021;-87
2021/01/24 07:56:18;;;;;;;2.90;2.72;;;3.60;99.90;;;;;;5049119;28;20436;-86
2021/01/24 07:58:46;;;;;;;5.32;2.35;;;3.60;99.90;;;;;;5065946;28;20013;-85
2021/01/24 08:01:14;;;;;;;3.55;3.05;;;3.60;99.90;;;;;;5064765;28;20048;-85
2021/01/24 08:03:42;;;;;;;0.70;0.70;;;3.60;99.90;;;;;;5064885;28;20025;-85
2021/01/24 08:06:11;;;;;;;2.38;2.17;;;3.60;99.90;;;;;;5066247;28;20029;-86
2021/01/24 08:08:41;;;;;;;1.45;1.35;;;3.70;99.90;;;;;;5064170;28;20021;-90
2021/01/24 08:11:12;;;;;;;0.60;0.47;;;3.70;99.90;;;;;;5048216;28;20168;-89
2021/01/24 08:13:40;;;;;;;0.40;0.40;;;3.70;99.90;;;;;;5049556;28;20543;-89
2021/01/24 08:16:15;;;;;;;2.38;1.88;;;3.70;99.90;;;;;;5050564;28;20048;-88
2021/01/24 08:18:44;;;;;;;0.20;0.20;;;3.80;99.90;;;;;;5067054;28;20103;-89
2021/01/24 08:21:11;;;;;;;0.20;0.20;;;3.90;99.90;;;;;;5044870;28;20036;-91
2021/01/24 08:23:38;;;;;;;0.05;0.05;;;3.90;99.90;;;;;;5047691;28;20404;-90
2021/01/24 08:26:05;;;;;;;1.88;1.38;;;3.90;99.90;;;;;;5049707;28;20060;-88
2021/01/24 08:28:31;;;;;;;0.20;0.20;;;4.00;99.90;;;;;;5070409;28;20025;-90
2021/01/24 08:31:01;;;;;;;6.93;3.43;;;4.00;99.90;;;;;;5054146;28;20032;-88
2021/01/24 08:33:27;;;;;;;0.28;0.28;;;4.00;99.90;;;;;;5047697;28;20472;-87
2021/01/24 08:36:09;;;;;;;0.20;0.20;;;4.20;99.90;;;;;;5053340;28;20559;-89
2021/01/24 08:38:35;;;;;;;0.30;0.30;;;4.30;99.90;;;;;;5054211;28;20032;-89
2021/01/24 08:41:01;;;;;;;0.10;0.10;;;4.20;99.90;;;;;;5071484;28;20028;-89
2021/01/24 08:43:28;;;;;;;0.20;0.20;;;4.20;99.90;;;;;;5070518;28;20075;-89
2021/01/24 08:45:54;;;;;;;0.35;0.35;;;4.20;99.90;;;;;;5053937;28;20031;-90
2021/01/24 08:48:21;;;;;;;1.98;1.65;;;4.20;99.90;;;;;;5054684;28;20028;-90
2021/01/24 08:50:48;;;;;;;0.98;0.73;;;4.30;99.90;;;;;;5055468;28;20046;-90
2021/01/24 08:53:14;;;;;;;0.90;0.90;;;4.30;99.90;;;;;;5073232;28;20052;-90
2021/01/24 08:55:50;;;;;;;0.63;0.63;;;4.40;99.90;;;;;;5055501;28;20063;-90
2021/01/24 08:58:27;;;;;;;3.05;1.90;;;4.50;99.90;;;;;;5054132;28;20055;-89
2021/01/24 09:01:07;;;;;;;2.13;0.70;;;4.60;99.90;;;;;;5040654;28;20017;-87
2021/01/24 09:03:33;;;;;;;1.13;1.02;;;4.80;99.90;;;;;;5061683;28;20032;-89
2021/01/24 09:06:19;;;;;;;3.63;1.52;;;5.00;99.90;;;;;;5043893;28;20485;-90
2021/01/24 09:08:46;;;;;;;0.63;0.20;;;4.80;99.90;;;;;;5048060;28;20131;-89
2021/01/24 09:11:13;;;;;;;0.35;0.35;;;4.80;99.90;;;;;;5042304;28;20417;-91
2021/01/24 09:13:38;;;;;;;0.20;0.20;;;4.70;99.90;;;;;;5045596;28;20028;-89
2021/01/24 09:16:05;;;;;;;0.20;0.20;;;4.70;99.90;;;;;;5059851;28;20021;-92
2021/01/24 09:18:31;;;;;;;0.47;0.47;;;4.90;99.90;;;;;;5041957;28;20119;-93
2021/01/24 09:20:56;;;;;;;1.27;1.05;;;5.00;99.90;;;;;;5066289;28;20574;-90
2021/01/24 09:23:22;;;;;;;0.15;0.15;;;5.00;99.90;;;;;;5069206;28;20089;-88
2021/01/24 09:25:48;;;;;;;4.45;0.57;;;5.10;99.90;;;;;;5046273;28;21542;-91
2021/01/24 09:28:14;;;;;;;0.10;0.10;;;5.30;99.90;;;;;;5047146;28;20123;-92
2021/01/24 09:30:40;;;;;;;0.10;0.10;;;5.40;99.90;;;;;;5042786;28;20486;-93
2021/01/24 09:33:07;;;;;;;0.70;0.38;;;5.40;99.90;;;;;;5050843;28;20576;-92
2021/01/24 09:35:32;;;;;;;;;;;5.40;99.90;;;;;;5049366;28;20020;-91
2021/01/24 09:37:58;;;;;;;0.20;0.20;;;5.30;99.90;;;;;;5053829;28;20404;-90
2021/01/24 09:40:24;;;;;;;1.15;0.75;;;5.20;99.90;;;;;;5043947;28;20482;-90
2021/01/24 09:42:50;;;;;;;0.30;0.30;;;5.30;99.90;;;;;;5075543;28;20118;-92
2021/01/24 09:45:16;;;;;;;1.50;1.40;;;5.20;99.90;;;;;;5074088;28;20029;-94
2021/01/24 09:47:41;;;;;;;2.50;1.90;;;5.10;99.90;;;;;;5055451;28;20024;-92
2021/01/24 09:50:10;;;;;;;1.40;1.30;;;5.00;99.90;;;;;;5054055;28;20074;-91
2021/01/24 09:52:36;;;;;;;0.35;0.35;;;5.00;99.90;;;;;;5055775;28;20107;-92
2021/01/24 09:55:03;;;;;;;0.40;0.40;;;5.00;99.90;;;;;;5055964;28;20457;-92
2021/01/24 09:57:29;;;;;;;7.53;2.95;;;5.10;99.90;;;;;;5055328;28;20066;-93
2021/01/24 09:59:54;;;;;;;1.20;1.10;;;5.00;99.90;;;;;;5055639;28;20115;-91
2021/01/24 10:02:20;;;;;;;0.52;0.52;;;5.00;99.90;;;;;;5052611;28;20027;-91
2021/01/24 10:04:46;;;;;;;0.10;0.10;;;5.30;99.90;;;;;;5054836;28;20028;-91
2021/01/24 10:07:12;;;;;;;0.40;0.30;;;5.60;99.90;;;;;;5054945;28;20028;-92
2021/01/24 10:09:37;;;;;;;0.28;0.28;;;5.70;99.90;;;;;;5054676;28;20535;-92
2021/01/24 10:12:04;;;;;;;2.75;1.65;;;5.90;99.90;;;;;;5055189;28;20091;-90
2021/01/24 10:14:30;;;;;;;0.70;0.70;;;5.80;99.90;;;;;;5052117;28;20056;-90
2021/01/24 10:16:56;;;;;;;0.10;0.10;;;5.80;99.90;;;;;;5074509;28;20028;-89
2021/01/24 10:19:21;;;;;;;0.10;0.10;;;5.80;99.90;;;;;;5065607;28;20124;-90
2021/01/24 10:21:48;;;;;;;0.20;0.20;;;6.10;99.90;;;;;;5051733;28;20078;-90
2021/01/24 10:24:16;;;;;;;0.10;0.10;;;6.40;99.90;;;;;;5046681;28;20028;-90
2021/01/24 10:26:42;;;;;;;1.50;1.38;;;6.40;99.90;;;;;;5060070;28;20069;-91
2021/01/24 10:29:08;;;;;;;0.20;0.20;;;6.40;99.90;;;;;;5043463;28;20090;-93
2021/01/24 10:31:34;;;;;;;0.10;0.10;;;6.10;99.90;;;;;;5048339;28;20670;-91
2021/01/24 10:34:00;;;;;;;0.75;0.75;;;6.00;99.90;;;;;;5034865;28;20028;-93
2021/01/24 10:36:25;;;;;;;4.68;1.40;;;5.80;99.90;;;;;;5043469;28;20040;-90
2021/01/24 10:38:51;;;;;;;0.10;0.10;;;5.70;99.90;;;;;;5047733;28;20032;-91
2021/01/24 10:41:17;;;;;;;0.10;0.10;;;5.60;99.90;;;;;;5062652;28;20031;-90
2021/01/24 10:43:43;;;;;;;0.10;0.10;;;5.80;99.90;;;;;;5044806;28;20112;-92
2021/01/24 10:46:08;;;;;;;0.43;0.43;;;5.80;99.90;;;;;;5046511;28;20111;-92
2021/01/24 10:48:34;;;;;;;0.10;0.10;;;5.60;99.90;;;;;;5040467;28;20173;-90
2021/01/24 10:51:01;;;;;;;0.80;0.55;;;5.50;99.90;;;;;;5054334;28;20029;-93
2021/01/24 10:53:26;;;;;;;12.25;1.38;;;5.70;99.90;;;;;;5036862;28;20025;-91
2021/01/24 10:55:52;;;;;;;0.70;0.70;;;6.30;99.90;;;;;;5033890;28;20116;-93
2021/01/24 10:58:19;;;;;;;1.10;0.35;;;6.80;99.90;;;;;;5047343;28;20501;-93
2021/01/24 11:00:45;;;;;;;0.10;0.10;;;6.80;99.90;;;;;;5050927;28;20020;-92
2021/01/24 11:03:10;;;;;;;1.10;1.00;;;6.70;99.90;;;;;;5047427;28;20036;-91
2021/01/24 11:05:36;;;;;;;0.13;0.13;;;7.20;99.90;;;;;;5054109;28;20028;-93
2021/01/24 11:08:02;;;;;;;0.10;0.10;;;8.10;99.90;;;;;;5053846;28;20522;-92
2021/01/24 11:10:28;;;;;;;0.10;0.10;;;8.30;99.90;;;;;;5054288;28;20056;-92
2021/01/24 11:13:04;;;;;;;0.10;0.10;;;7.50;99.90;;;;;;5055246;28;20052;-92
2021/01/24 11:15:31;;;;;;;0.22;0.22;;;6.90;99.90;;;;;;5062345;28;20024;-92
2021/01/24 11:17:58;;;;;;;1.98;0.95;;;7.60;99.90;;;;;;5054665;28;20033;-91
2021/01/24 11:20:26;;;;;;;0.68;0.68;;;7.80;99.90;;;;;;5046897;28;20075;-92
2021/01/24 11:22:55;;;;;;;0.25;0.25;;;7.90;99.90;;;;;;5025689;28;20468;-93
2021/01/24 11:25:21;;;;;;;0.10;0.10;;;8.40;99.90;;;;;;5037241;28;20064;-93
2021/01/24 11:27:48;;;;;;;0.45;0.45;;;8.20;99.90;;;;;;5044969;28;20051;-91
2021/01/24 11:30:15;;;;;;;0.68;0.57;;;7.50;99.90;;;;;;5053709;28;20032;-91
2021/01/24 11:32:41;;;;;;;;;;;6.80;99.90;;;;;;5050958;28;20561;-93
2021/01/24 11:35:09;;;;;;;0.30;0.30;;;6.90;99.90;;;;;;5047971;28;19905;-92
2021/01/24 11:37:35;;;;;;;0.38;0.38;;;6.80;99.90;;;;;;5068791;28;20017;-92
2021/01/24 11:40:02;;;;;;;0.10;0.10;;;6.20;99.90;;;;;;5039920;28;20032;-92
2021/01/24 11:42:28;;;;;;;0.20;0.20;;;6.00;99.90;;;;;;5053416;28;20028;-91
2021/01/24 11:44:55;;;;;;;0.60;0.40;;;5.60;99.90;;;;;;5054016;28;20037;-92
2021/01/24 11:47:22;;;;;;;0.10;0.10;;;5.70;99.90;;;;;;5047412;28;20135;-92
2021/01/24 11:49:47;;;;;;;0.03;0.03;;;5.50;99.90;;;;;;5052880;28;20078;-92
2021/01/24 11:52:13;;;;;;;0.10;0.10;;;5.50;99.90;;;;;;5054574;28;20028;-93
2021/01/24 11:54:39;;;;;;;0.43;0.43;;;5.40;99.90;;;;;;5052749;28;20123;-93
2021/01/24 11:57:06;;;;;;;0.10;0.10;;;5.50;99.90;;;;;;5053445;28;20020;-92
2021/01/24 11:59:32;;;;;;;0.00;0.00;;;5.60;99.90;;;;;;5053258;28;20036;-93
2021/01/24 12:01:58;;;;;;;1.70;1.15;;;5.80;99.90;;;;;;5052614;28;20075;-94
2021/01/24 12:04:25;;;;;;;0.60;0.60;;;5.80;99.90;;;;;;5055322;28;20039;-95
2021/01/24 12:06:51;;;;;;;0.17;0.17;;;5.80;99.90;;;;;;5058303;28;20024;-94
2021/01/24 12:09:17;;;;;;;0.00;0.00;;;5.80;99.90;;;;;;5057878;28;20112;-93
2021/01/24 12:11:42;;;;;;;0.00;0.00;;;6.00;99.90;;;;;;5056738;28;20111;-91
2021/01/24 12:14:08;;;;;;;0.00;0.00;;;5.90;99.90;;;;;;5059761;28;20400;-93
2021/01/24 12:16:35;;;;;;;0.10;0.10;;;5.90;99.90;;;;;;5065951;28;20016;-91
2021/01/24 12:19:02;;;;;;;0.10;0.10;;;5.80;99.90;;;;;;5049334;28;20068;-90
2021/01/24 12:21:28;;;;;;;;;;;5.70;99.90;;;;;;5072082;28;20020;-91
2021/01/24 12:23:55;;;;;;;0.20;0.20;;;5.60;99.90;;;;;;5053810;28;19927;-90
2021/01/24 12:26:22;;;;;;;0.10;0.10;;;5.70;99.90;;;;;;5055336;28;20028;-91
2021/01/24 12:28:49;;;;;;;0.00;0.00;;;5.60;99.90;;;;;;5047048;28;20025;-90
2021/01/24 12:31:15;;;;;;;0.10;0.10;;;5.60;99.90;;;;;;5069556;28;20029;-90
2021/01/24 12:33:42;;;;;;;0.20;0.20;;;5.60;99.90;;;;;;5056958;28;20126;-91
2021/01/24 12:36:08;;;;;;;0.10;0.10;;;5.60;99.90;;;;;;5039165;28;20116;-90
2021/01/24 12:38:35;;;;;;;0.15;0.15;;;5.60;99.90;;;;;;5074801;28;20025;-91
2021/01/24 12:41:01;;;;;;;0.20;0.20;;;5.60;99.90;;;;;;5064416;28;20581;-89
2021/01/24 12:43:28;;;;;;;0.20;0.20;;;5.60;99.90;;;;;;5053925;28;20379;-91
2021/01/24 12:45:55;;;;;;;0.00;0.00;;;5.60;99.90;;;;;;5068174;28;20124;-91
2021/01/24 12:48:21;;;;;;;0.00;0.00;;;5.70;99.90;;;;;;5050862;28;20060;-92
2021/01/24 12:50:51;;;;;;;0.35;0.35;;;5.70;99.90;;;;;;5048329;28;20082;-90
2021/01/24 12:53:19;;;;;;;0.10;0.10;;;5.90;99.90;;;;;;5054872;28;20047;-91
2021/01/24 12:55:48;;;;;;;3.40;2.25;;;5.90;99.90;;;;;;5069318;28;20032;-92
2021/01/24 12:58:17;;;;;;;1.05;1.05;;;5.90;99.90;;;;;;5047012;28;20112;-91
2021/01/24 13:00:46;;;;;;;0.10;0.10;;;5.80;99.90;;;;;;5054657;28;20043;-91